createdAt,value
2023-04-10T00:00:57.067Z,9.47
2023-04-10T00:03:25.101Z,12.70
2023-04-10T00:05:54.553Z,8.60
2023-04-10T00:08:23.832Z,9.77
2023-04-10T00:10:51.799Z,11.00
2023-04-10T00:13:19.594Z,12.03
2023-04-10T00:15:47.346Z,10.10
2023-04-10T00:18:15.347Z,11.70
2023-04-10T00:20:43.614Z,11.00
2023-04-10T00:23:11.445Z,11.00
2023-04-10T00:25:40.601Z,11.67
2023-04-10T00:28:08.374Z,14.00
2023-04-10T00:30:36.177Z,12.57
2023-04-10T00:33:04.060Z,12.57
2023-04-10T00:35:32.320Z,11.70
2023-04-10T00:38:00.240Z,10.73
2023-04-10T00:40:30.170Z,9.57
2023-04-10T00:42:59.302Z,11.17
2023-04-10T00:45:27.336Z,10.53
2023-04-10T00:47:55.805Z,9.37
2023-04-10T00:50:23.788Z,10.10
2023-04-10T00:52:52.592Z,10.80
2023-04-10T00:55:20.565Z,9.50
2023-04-10T00:57:49.911Z,9.37
2023-04-10T01:00:19.670Z,10.77
2023-04-10T01:02:47.522Z,9.40
2023-04-10T01:05:17.034Z,9.77
2023-04-10T01:08:01.467Z,10.43
2023-04-10T01:10:37.536Z,10.83
2023-04-10T01:13:12.287Z,11.33
2023-04-10T01:15:48.571Z,9.80
2023-04-10T01:18:22.848Z,11.73
2023-04-10T01:20:50.673Z,10.23
2023-04-10T01:23:40.973Z,9.87
2023-04-10T01:26:11.128Z,10.80
2023-04-10T01:28:53.726Z,10.30
2023-04-10T01:31:26.854Z,10.07
2023-04-10T01:33:59.384Z,12.20
2023-04-10T01:36:31.861Z,10.17
2023-04-10T01:39:00.378Z,10.20
2023-04-10T01:41:29.630Z,9.60
2023-04-10T01:43:59.824Z,9.83
2023-04-10T01:46:28.791Z,10.63
2023-04-10T01:48:57.669Z,11.00
2023-04-10T01:51:26.205Z,12.50
2023-04-10T01:53:54.605Z,9.70
2023-04-10T01:56:22.751Z,9.60
2023-04-10T01:58:51.463Z,11.07
2023-04-10T02:01:29.644Z,9.67
2023-04-10T02:03:58.816Z,8.90
2023-04-10T02:06:44.285Z,11.87
2023-04-10T02:09:17.184Z,10.87
2023-04-10T02:11:50.358Z,10.97
2023-04-10T02:14:21.465Z,9.33
2023-04-10T02:16:53.174Z,9.87
2023-04-10T02:19:23.543Z,9.73
2023-04-10T02:21:52.229Z,10.80
2023-04-10T02:24:21.404Z,8.47
2023-04-10T02:26:50.773Z,11.27
2023-04-10T02:29:19.138Z,9.80
2023-04-10T02:31:47.755Z,9.80
2023-04-10T02:34:16.924Z,9.73
2023-04-10T02:36:44.699Z,11.20
2023-04-10T02:39:12.504Z,9.97
2023-04-10T02:41:40.277Z,11.87
2023-04-10T02:44:08.021Z,10.60
2023-04-10T02:46:35.876Z,10.73
2023-04-10T02:49:03.752Z,14.90
2023-04-10T02:51:36.268Z,12.50
2023-04-10T02:54:04.271Z,11.07
2023-04-10T02:56:34.637Z,11.03
2023-04-10T02:59:02.426Z,12.00
2023-04-10T03:01:30.781Z,12.33
2023-04-10T03:03:58.985Z,13.43
2023-04-10T03:06:27.334Z,10.47
2023-04-10T03:08:56.550Z,13.83
2023-04-10T03:11:24.320Z,16.20
2023-04-10T03:13:52.411Z,12.23
2023-04-10T03:16:20.653Z,12.17
2023-04-10T03:18:48.540Z,12.67
2023-04-10T03:21:16.576Z,12.33
2023-04-10T03:23:44.365Z,14.07
2023-04-10T03:26:13.494Z,10.03
2023-04-10T03:28:41.358Z,9.67
2023-04-10T03:31:09.631Z,11.40
2023-04-10T03:33:37.497Z,12.87
2023-04-10T03:36:05.897Z,12.53
2023-04-10T03:38:33.705Z,12.60
2023-04-10T03:41:01.510Z,13.10
2023-04-10T03:43:30.675Z,14.47
2023-04-10T03:45:58.451Z,12.60
2023-04-10T03:48:28.084Z,14.57
2023-04-10T03:50:55.949Z,13.60
2023-04-10T03:53:23.922Z,15.13
2023-04-10T03:55:52.314Z,15.27
2023-04-10T03:58:20.287Z,15.33
2023-04-10T04:00:49.443Z,12.97
2023-04-10T04:03:17.418Z,12.33
2023-04-10T04:05:45.365Z,12.40
2023-04-10T04:08:13.892Z,14.20
2023-04-10T04:10:41.731Z,15.27
2023-04-10T04:13:09.463Z,13.90
2023-04-10T04:15:37.262Z,13.60
2023-04-10T04:18:06.508Z,13.87
2023-04-10T04:20:34.298Z,15.17
2023-04-10T04:23:02.079Z,14.60
2023-04-10T04:25:29.894Z,14.53
2023-04-10T04:27:57.676Z,15.30
2023-04-10T04:30:25.503Z,13.43
2023-04-10T04:32:53.332Z,14.37
2023-04-10T04:35:23.049Z,15.23
2023-04-10T04:37:50.774Z,14.27
2023-04-10T04:40:18.557Z,12.53
2023-04-10T04:42:46.337Z,13.00
2023-04-10T04:45:14.162Z,14.87
2023-04-10T04:47:41.972Z,14.63
2023-04-10T04:50:10.919Z,14.93
2023-04-10T04:52:40.140Z,15.03
2023-04-10T04:55:09.251Z,16.33
2023-04-10T04:57:37.071Z,16.73
2023-04-10T05:00:05.532Z,17.57
2023-04-10T05:02:33.417Z,18.37
2023-04-10T05:05:01.387Z,15.53
2023-04-10T05:07:29.454Z,18.47
2023-04-10T05:09:58.566Z,17.80
2023-04-10T05:12:26.352Z,20.17
2023-04-10T05:14:54.468Z,16.80
2023-04-10T05:17:22.254Z,17.83
2023-04-10T05:19:50.137Z,16.43
2023-04-10T05:22:18.642Z,16.53
2023-04-10T05:24:46.556Z,13.60
2023-04-10T05:27:15.656Z,16.20
2023-04-10T05:29:43.396Z,16.40
2023-04-10T05:32:11.275Z,16.97
2023-04-10T05:34:39.034Z,16.77
2023-04-10T05:37:06.878Z,18.13
2023-04-10T05:39:34.612Z,18.60
2023-04-10T05:42:02.866Z,18.13
2023-04-10T05:44:32.268Z,18.00
2023-04-10T05:47:00.006Z,18.00
2023-04-10T05:49:27.757Z,17.67
2023-04-10T05:51:55.543Z,17.83
2023-04-10T05:54:23.395Z,20.90
2023-04-10T05:56:51.234Z,16.87
2023-04-10T05:59:18.985Z,17.60
2023-04-10T06:01:48.181Z,20.17
2023-04-10T06:04:16.215Z,19.87
2023-04-10T06:06:44.199Z,23.53
2023-04-10T06:09:11.991Z,18.07
2023-04-10T06:11:39.766Z,20.63
2023-04-10T06:14:07.587Z,19.47
2023-04-10T06:16:35.411Z,19.03
2023-04-10T06:19:04.558Z,17.30
2023-04-10T06:21:32.671Z,18.73
2023-04-10T06:24:00.418Z,18.67
2023-04-10T06:26:28.233Z,15.17
2023-04-10T06:28:56.442Z,17.73
2023-04-10T06:31:25.424Z,17.27
2023-04-10T06:33:53.288Z,14.70
2023-04-10T06:36:22.391Z,18.07
2023-04-10T06:38:50.140Z,17.10
2023-04-10T06:41:17.874Z,15.13
2023-04-10T06:43:45.958Z,17.23
2023-04-10T06:46:14.177Z,15.67
2023-04-10T06:48:41.991Z,13.70
2023-04-10T06:51:09.756Z,16.50
2023-04-10T06:53:38.895Z,16.37
2023-04-10T06:56:08.108Z,14.67
2023-04-10T06:58:35.888Z,14.37
2023-04-10T07:01:04.624Z,13.20
2023-04-10T07:03:33.686Z,13.53
2023-04-10T07:06:01.904Z,13.87
2023-04-10T07:08:29.665Z,15.10
2023-04-10T07:10:59.007Z,12.70
2023-04-10T07:13:26.904Z,12.83
2023-04-10T07:15:54.792Z,14.17
2023-04-10T07:18:22.644Z,11.67
2023-04-10T07:20:52.464Z,12.40
2023-04-10T07:23:20.429Z,13.27
2023-04-10T07:25:48.229Z,13.70
2023-04-10T07:28:17.299Z,13.20
2023-04-10T07:30:45.085Z,12.57
2023-04-10T07:33:12.989Z,11.37
2023-04-10T07:35:41.510Z,11.30
2023-04-10T07:38:09.348Z,12.77
2023-04-10T07:40:37.142Z,14.00
2023-04-10T07:43:04.934Z,12.63
2023-04-10T07:45:34.387Z,12.07
2023-04-10T07:48:02.621Z,11.10
2023-04-10T07:50:31.327Z,11.37
2023-04-10T07:53:03.315Z,13.30
2023-04-10T07:55:31.122Z,11.83
2023-04-10T07:57:58.863Z,11.60
2023-04-10T08:00:26.621Z,12.10
2023-04-10T08:02:56.026Z,10.17
2023-04-10T08:05:24.094Z,12.73
2023-04-10T08:07:51.923Z,11.30
2023-04-10T08:10:20.110Z,11.33
2023-04-10T08:12:47.870Z,12.23
2023-04-10T08:15:16.141Z,11.43
2023-04-10T08:17:43.916Z,11.70
2023-04-10T08:20:14.138Z,11.30
2023-04-10T08:22:41.917Z,10.07
2023-04-10T08:25:10.546Z,10.23
2023-04-10T08:27:38.408Z,8.27
2023-04-10T08:30:07.521Z,9.67
2023-04-10T08:32:35.334Z,8.73
2023-04-10T08:35:03.173Z,8.83
2023-04-10T08:37:32.327Z,7.50
2023-04-10T08:40:00.156Z,7.70
2023-04-10T08:42:27.955Z,8.10
2023-04-10T08:44:55.794Z,8.67
2023-04-10T08:47:27.156Z,7.17
2023-04-10T08:49:57.283Z,8.27
2023-04-10T08:52:27.181Z,6.33
2023-04-10T08:54:58.517Z,6.73
2023-04-10T08:57:27.869Z,7.77
2023-04-10T08:59:55.947Z,8.40
2023-04-10T09:02:23.919Z,8.43
2023-04-10T09:04:55.142Z,8.03
2023-04-10T09:07:24.021Z,7.17
2023-04-10T09:09:51.788Z,8.20
2023-04-10T09:12:21.011Z,7.70
2023-04-10T09:14:53.106Z,7.37
2023-04-10T09:17:23.157Z,7.03
2023-04-10T09:19:53.316Z,6.93
2023-04-10T09:22:30.921Z,7.10
2023-04-10T09:25:00.133Z,7.27
2023-04-10T09:27:32.228Z,7.47
2023-04-10T09:30:00.422Z,6.80
2023-04-10T09:32:39.262Z,8.60
2023-04-10T09:35:08.484Z,8.40
2023-04-10T09:37:37.069Z,7.97
2023-04-10T09:40:06.295Z,7.60
2023-04-10T09:42:37.939Z,7.73
2023-04-10T09:45:06.911Z,7.10
2023-04-10T09:47:34.965Z,7.20
2023-04-10T09:50:03.144Z,7.23
2023-04-10T09:52:32.163Z,7.97
2023-04-10T09:55:01.821Z,7.30
2023-04-10T09:57:31.307Z,7.03
2023-04-10T10:00:03.996Z,6.40
2023-04-10T10:02:34.772Z,7.27
2023-04-10T10:05:05.670Z,8.07
2023-04-10T10:07:33.701Z,7.93
2023-04-10T10:10:03.563Z,6.53
2023-04-10T10:12:37.900Z,6.77
2023-04-10T10:15:11.621Z,6.67
2023-04-10T10:17:43.712Z,7.77
2023-04-10T10:20:12.695Z,6.93
2023-04-10T10:22:41.297Z,6.97
2023-04-10T10:25:10.834Z,6.77
2023-04-10T10:27:39.840Z,6.37
2023-04-10T10:30:25.153Z,6.23
2023-04-10T10:32:57.159Z,7.50
2023-04-10T10:35:28.764Z,7.67
2023-04-10T10:37:59.523Z,7.80
2023-04-10T10:40:32.318Z,5.67
2023-04-10T10:43:08.686Z,5.40
2023-04-10T10:45:47.692Z,6.60
2023-04-10T10:48:16.625Z,6.43
2023-04-10T10:50:58.830Z,6.53
2023-04-10T10:53:38.510Z,5.97
2023-04-10T10:56:34.969Z,6.30
2023-04-10T10:59:03.186Z,5.20
2023-04-10T11:01:32.437Z,4.87
2023-04-10T11:04:01.261Z,4.73
2023-04-10T11:06:52.232Z,4.80
2023-04-10T11:09:45.750Z,4.87
2023-04-10T11:12:13.651Z,4.97
2023-04-10T11:14:42.771Z,4.47
2023-04-10T11:17:13.913Z,5.03
2023-04-10T11:20:01.650Z,4.93
2023-04-10T11:22:29.486Z,4.77
2023-04-10T11:25:02.258Z,5.40
2023-04-10T11:27:53.895Z,5.03
2023-04-10T11:30:30.783Z,4.50
2023-04-10T11:33:01.343Z,5.27
2023-04-10T11:35:31.208Z,5.87
2023-04-10T11:38:12.792Z,5.10
2023-04-10T11:41:04.375Z,5.93
2023-04-10T11:43:33.602Z,5.63
2023-04-10T11:46:07.232Z,4.50
2023-04-10T11:48:37.540Z,4.30
2023-04-10T11:51:10.334Z,4.03
2023-04-10T11:53:38.814Z,5.00
2023-04-10T11:56:08.449Z,4.20
2023-04-10T11:58:36.907Z,5.17
2023-04-10T12:01:06.581Z,4.00
2023-04-10T12:03:38.496Z,3.83
2023-04-10T12:06:09.738Z,3.80
2023-04-10T12:08:39.732Z,5.07
2023-04-10T12:11:08.562Z,4.73
2023-04-10T12:13:36.918Z,5.30
2023-04-10T12:16:07.701Z,5.00
2023-04-10T12:18:37.346Z,4.67
2023-04-10T12:21:08.148Z,5.53
2023-04-10T12:23:39.074Z,5.07
2023-04-10T12:26:12.926Z,4.10
2023-04-10T12:28:42.024Z,4.00
2023-04-10T12:31:10.378Z,4.03
2023-04-10T12:33:40.570Z,4.47
2023-04-10T12:36:21.804Z,3.83
2023-04-10T12:38:49.637Z,4.23
2023-04-10T12:41:23.437Z,4.20
2023-04-10T12:43:52.777Z,4.27
2023-04-10T12:46:27.322Z,4.43
2023-04-10T12:48:57.094Z,4.77
2023-04-10T12:51:42.773Z,4.30
2023-04-10T12:54:10.590Z,4.60
2023-04-10T12:56:47.401Z,3.90
2023-04-10T12:59:15.128Z,3.43
2023-04-10T13:01:42.999Z,3.80
2023-04-10T13:04:12.324Z,4.40
2023-04-10T13:06:47.169Z,5.97
2023-04-10T13:09:15.730Z,3.80
2023-04-10T13:11:44.697Z,3.80
2023-04-10T13:14:13.044Z,4.67
2023-04-10T13:16:41.019Z,5.20
2023-04-10T13:19:08.957Z,4.17
2023-04-10T13:21:38.059Z,3.97
2023-04-10T13:24:05.903Z,4.87
2023-04-10T13:26:33.672Z,3.90
2023-04-10T13:29:01.470Z,3.80
2023-04-10T13:31:29.308Z,3.47
2023-04-10T13:33:57.070Z,4.07
2023-04-10T13:36:24.944Z,4.43
2023-04-10T13:38:54.452Z,3.77
2023-04-10T13:41:23.648Z,5.60
2023-04-10T13:43:51.447Z,4.23
2023-04-10T13:46:19.485Z,3.80
2023-04-10T13:48:47.329Z,4.47
2023-04-10T13:51:15.316Z,3.40
2023-04-10T13:53:43.081Z,3.03
2023-04-10T13:56:12.372Z,2.63
2023-04-10T13:58:40.124Z,3.33
2023-04-10T14:01:08.799Z,3.30
2023-04-10T14:03:36.690Z,3.70
2023-04-10T14:06:04.680Z,3.87
2023-04-10T14:08:32.465Z,3.10
2023-04-10T14:11:00.345Z,2.93
2023-04-10T14:13:30.290Z,3.10
2023-04-10T14:15:58.037Z,4.20
2023-04-10T14:18:25.785Z,3.17
2023-04-10T14:20:53.552Z,3.20
2023-04-10T14:23:22.296Z,3.23
2023-04-10T14:25:51.535Z,3.30
2023-04-10T14:28:19.292Z,3.37
2023-04-10T14:30:49.503Z,2.83
2023-04-10T14:33:19.622Z,3.17
2023-04-10T14:35:48.368Z,2.60
2023-04-10T14:38:16.535Z,2.90
2023-04-10T14:40:45.726Z,3.07
2023-04-10T14:43:13.546Z,3.03
2023-04-10T14:45:41.327Z,3.20
2023-04-10T14:48:10.975Z,4.00
2023-04-10T14:50:38.943Z,3.20
2023-04-10T14:53:09.492Z,3.23
2023-04-10T14:55:37.683Z,3.57
2023-04-10T14:58:06.617Z,2.93
2023-04-10T15:00:34.464Z,2.67
2023-04-10T15:03:02.336Z,3.10
2023-04-10T15:05:31.542Z,3.77
2023-04-10T15:07:59.308Z,3.63
2023-04-10T15:10:27.122Z,3.03
2023-04-10T15:12:54.865Z,2.90
2023-04-10T15:15:22.682Z,2.97
2023-04-10T15:17:50.549Z,2.60
2023-04-10T15:20:18.388Z,3.13
2023-04-10T15:22:48.075Z,3.27
2023-04-10T15:25:16.068Z,3.17
2023-04-10T15:27:43.825Z,2.70
2023-04-10T15:30:12.555Z,2.80
2023-04-10T15:32:40.326Z,3.00
2023-04-10T15:35:09.243Z,3.10
2023-04-10T15:37:37.459Z,3.30
2023-04-10T15:40:07.611Z,3.30
2023-04-10T15:42:36.838Z,3.50
2023-04-10T15:45:05.146Z,4.63
2023-04-10T15:47:32.897Z,3.07
2023-04-10T15:50:00.815Z,4.33
2023-04-10T15:52:29.182Z,3.63
2023-04-10T15:54:57.894Z,4.70
2023-04-10T15:57:27.020Z,3.47
2023-04-10T15:59:56.550Z,4.10
2023-04-10T16:02:24.506Z,3.93
2023-04-10T16:04:52.571Z,3.20
2023-04-10T16:07:20.917Z,3.00
2023-04-10T16:09:48.649Z,3.43
2023-04-10T16:12:16.706Z,3.73
2023-04-10T16:14:45.818Z,3.47
2023-04-10T16:17:13.613Z,3.37
2023-04-10T16:19:41.398Z,3.97
2023-04-10T16:22:09.153Z,4.27
2023-04-10T16:24:36.905Z,4.00
2023-04-10T16:27:04.979Z,3.30
2023-04-10T16:29:32.737Z,3.57
2023-04-10T16:32:02.196Z,3.60
2023-04-10T16:34:29.969Z,3.87
2023-04-10T16:36:57.711Z,3.27
2023-04-10T16:39:25.683Z,3.83
2023-04-10T16:41:53.769Z,3.27
2023-04-10T16:44:21.544Z,3.33
2023-04-10T16:46:49.443Z,4.20
2023-04-10T16:49:18.557Z,3.43
2023-04-10T16:51:46.291Z,3.33
2023-04-10T16:54:14.377Z,3.60
2023-04-10T16:56:42.314Z,4.00
2023-04-10T16:59:10.261Z,3.60
2023-04-10T17:01:39.635Z,3.90
2023-04-10T17:04:08.799Z,3.60
2023-04-10T17:06:37.967Z,4.20
2023-04-10T17:09:05.956Z,5.53
2023-04-10T17:11:33.729Z,4.17
2023-04-10T17:14:01.451Z,4.00
2023-04-10T17:16:29.188Z,3.80
2023-04-10T17:18:58.178Z,2.97
2023-04-10T17:21:27.040Z,3.93
2023-04-10T17:23:56.151Z,4.10
2023-04-10T17:26:24.069Z,3.63
2023-04-10T17:28:52.093Z,3.97
2023-04-10T17:31:20.245Z,4.20
2023-04-10T17:33:48.053Z,3.77
2023-04-10T17:36:15.995Z,3.80
2023-04-10T17:38:43.957Z,4.43
2023-04-10T17:41:15.757Z,3.90
2023-04-10T17:43:43.498Z,4.60
2023-04-10T17:46:14.948Z,3.90
2023-04-10T17:48:42.983Z,3.13
2023-04-10T17:51:11.088Z,3.97
2023-04-10T17:53:38.939Z,3.30
2023-04-10T17:56:07.527Z,2.97
2023-04-10T17:58:36.628Z,3.47
2023-04-10T18:01:04.401Z,3.97
2023-04-10T18:03:32.300Z,3.87
2023-04-10T18:06:00.104Z,3.80
2023-04-10T18:08:27.860Z,3.20
2023-04-10T18:10:55.716Z,3.43
2023-04-10T18:13:23.594Z,3.40
2023-04-10T18:15:52.731Z,3.20
2023-04-10T18:18:20.522Z,3.43
2023-04-10T18:20:48.281Z,3.70
2023-04-10T18:23:16.062Z,4.30
2023-04-10T18:25:52.208Z,4.80
2023-04-10T18:28:20.573Z,3.70
2023-04-10T18:30:48.397Z,3.40
2023-04-10T18:33:22.186Z,3.33
2023-04-10T18:35:50.430Z,3.60
2023-04-10T18:38:18.359Z,3.60
2023-04-10T18:40:46.194Z,3.30
2023-04-10T18:43:14.070Z,4.47
2023-04-10T18:45:42.157Z,4.30
2023-04-10T18:48:10.182Z,4.70
2023-04-10T18:50:39.309Z,4.43
2023-04-10T18:53:07.124Z,4.47
2023-04-10T18:55:34.959Z,3.53
2023-04-10T18:58:02.701Z,5.37
2023-04-10T19:00:31.912Z,4.57
2023-04-10T19:02:59.760Z,4.03
2023-04-10T19:05:27.650Z,4.13
2023-04-10T19:08:03.506Z,6.50
2023-04-10T19:10:32.295Z,5.53
2023-04-10T19:13:00.106Z,5.37
2023-04-10T19:15:27.841Z,4.00
2023-04-10T19:17:56.089Z,3.83
2023-04-10T19:20:50.231Z,3.87
2023-04-10T19:23:13.154Z,5.97
2023-04-10T19:25:40.974Z,5.33
2023-04-10T19:28:08.748Z,4.57
2023-04-10T19:30:36.550Z,4.00
2023-04-10T19:33:04.426Z,4.83
2023-04-10T19:35:32.351Z,4.60
2023-04-10T19:38:00.257Z,4.20
2023-04-10T19:40:30.456Z,4.70
2023-04-10T19:43:00.213Z,4.00
2023-04-10T19:45:29.093Z,4.83
2023-04-10T19:47:57.564Z,4.90
2023-04-10T19:50:25.569Z,4.50
2023-04-10T19:52:53.335Z,4.07
2023-04-10T19:55:21.385Z,5.33
2023-04-10T19:57:51.087Z,4.63
2023-04-10T20:00:19.445Z,4.33
2023-04-10T20:02:47.506Z,4.07
2023-04-10T20:05:15.434Z,7.43
2023-04-10T20:07:43.291Z,3.47
2023-04-10T20:10:11.827Z,3.50
2023-04-10T20:12:39.676Z,3.90
2023-04-10T20:15:10.286Z,4.83
2023-04-10T20:17:38.904Z,3.97
2023-04-10T20:20:07.815Z,4.17
2023-04-10T20:22:35.554Z,3.87
2023-04-10T20:25:03.284Z,3.93
2023-04-10T20:27:31.058Z,4.50
2023-04-10T20:29:58.821Z,4.30
2023-04-10T20:32:27.924Z,4.90
2023-04-10T20:34:55.723Z,3.60
2023-04-10T20:37:23.513Z,5.93
2023-04-10T20:39:51.875Z,4.20
2023-04-10T20:42:19.647Z,5.03
2023-04-10T20:44:47.412Z,5.27
2023-04-10T20:47:15.694Z,4.70
2023-04-10T20:49:44.918Z,5.60
2023-04-10T20:52:12.708Z,4.57
2023-04-10T20:54:40.545Z,4.43
2023-04-10T20:57:08.269Z,4.60
2023-04-10T20:59:36.555Z,4.47
2023-04-10T21:02:04.567Z,4.07
2023-04-10T21:04:32.753Z,4.33
2023-04-10T21:07:01.866Z,4.70
2023-04-10T21:09:29.697Z,4.43
2023-04-10T21:11:58.086Z,4.57
2023-04-10T21:14:25.842Z,5.73
2023-04-10T21:16:53.787Z,4.77
2023-04-10T21:19:21.671Z,4.67
2023-04-10T21:21:49.468Z,5.20
2023-04-10T21:24:18.561Z,5.30
2023-04-10T21:26:46.305Z,4.80
2023-04-10T21:29:14.061Z,5.73
2023-04-10T21:31:41.820Z,5.63
2023-04-10T21:34:09.610Z,5.70
2023-04-10T21:36:37.345Z,4.70
2023-04-10T21:39:08.810Z,6.43
2023-04-10T21:41:38.266Z,4.73
2023-04-10T21:44:06.604Z,6.23
2023-04-10T21:46:34.770Z,6.77
2023-04-10T21:49:02.928Z,5.80
2023-04-10T21:51:30.944Z,9.03
2023-04-10T21:53:58.696Z,5.47
2023-04-10T21:56:26.602Z,5.63
2023-04-10T21:58:55.988Z,4.77
2023-04-10T22:01:24.175Z,5.43
2023-04-10T22:03:53.143Z,5.93
2023-04-10T22:06:21.330Z,6.03
2023-04-10T22:08:49.328Z,6.60
2023-04-10T22:11:17.124Z,5.60
2023-04-10T22:13:44.859Z,7.57
2023-04-10T22:16:13.963Z,4.93
2023-04-10T22:18:41.836Z,5.47
2023-04-10T22:21:09.767Z,6.40
2023-04-10T22:23:37.549Z,5.63
2023-04-10T22:26:05.546Z,5.40
2023-04-10T22:28:33.378Z,5.27
2023-04-10T22:31:01.200Z,6.20
2023-04-10T22:33:33.128Z,4.77
2023-04-10T22:36:00.942Z,5.37
2023-04-10T22:38:28.732Z,6.67
2023-04-10T22:40:56.709Z,5.33
2023-04-10T22:43:24.586Z,5.93
2023-04-10T22:45:52.453Z,4.93
2023-04-10T22:48:20.488Z,5.87
2023-04-10T22:50:49.620Z,6.43
2023-04-10T22:53:17.370Z,5.60
2023-04-10T22:55:45.175Z,4.67
2023-04-10T22:58:12.925Z,6.23
2023-04-10T23:00:40.762Z,6.20
2023-04-10T23:03:08.621Z,6.60
2023-04-10T23:05:36.500Z,4.60
2023-04-10T23:08:05.599Z,5.23
2023-04-10T23:10:33.343Z,5.17
2023-04-10T23:13:01.287Z,5.57
2023-04-10T23:15:29.079Z,4.20
2023-04-10T23:17:56.895Z,5.47
2023-04-10T23:20:25.337Z,6.63
2023-04-10T23:22:54.068Z,5.43
2023-04-10T23:25:23.493Z,4.40
2023-04-10T23:27:52.230Z,5.13
2023-04-10T23:30:20.065Z,5.23
2023-04-10T23:32:47.869Z,5.10
2023-04-10T23:35:15.766Z,4.77
2023-04-10T23:37:43.502Z,5.13
2023-04-10T23:40:12.295Z,5.03
2023-04-10T23:42:41.423Z,4.53
2023-04-10T23:45:10.360Z,5.67
2023-04-10T23:47:38.207Z,4.93
2023-04-10T23:50:07.111Z,4.73
2023-04-10T23:52:34.899Z,4.60
2023-04-10T23:55:02.665Z,5.43
2023-04-10T23:57:30.448Z,5.60
